sensor_id;sensor_type;location;lat;lon;timestamp;temperature;humidity
8557;DHT22;4316;53.840;10.762;2022-09-03T00:02:23;16.50;99.90
8557;DHT22;4316;53.840;10.762;2022-09-03T00:07:34;16.50;99.90
8557;DHT22;4316;53.840;10.762;2022-09-03T00:10:07;16.40;99.90
8557;DHT22;4316;53.840;10.762;2022-09-03T00:12:39;16.40;99.90
8557;DHT22;4316;53.840;10.762;2022-09-03T00:15:09;16.30;99.90
8557;DHT22;4316;53.840;10.762;2022-09-03T00:17:43;16.40;99.90
8557;DHT22;4316;53.840;10.762;2022-09-03T00:21:06;16.30;99.90
8557;DHT22;4316;53.840;10.762;2022-09-03T00:23:18;16.40;99.90
8557;DHT22;4316;53.840;10.762;2022-09-03T00:29:11;16.30;99.90
8557;DHT22;4316;53.840;10.762;2022-09-03T00:31:43;16.40;99.90
8557;DHT22;4316;53.840;10.762;2022-09-03T00:34:16;16.30;99.90
8557;DHT22;4316;53.840;10.762;2022-09-03T00:36:46;16.30;99.90
8557;DHT22;4316;53.840;10.762;2022-09-03T00:39:15;16.30;99.90
8557;DHT22;4316;53.840;10.762;2022-09-03T00:41:47;16.30;99.90
8557;DHT22;4316;53.840;10.762;2022-09-03T00:44:53;16.30;99.90
8557;DHT22;4316;53.840;10.762;2022-09-03T00:50:08;16.30;99.90
8557;DHT22;4316;53.840;10.762;2022-09-03T00:59:08;16.30;99.90
8557;DHT22;4316;53.840;10.762;2022-09-03T01:01:24;16.30;99.90
8557;DHT22;4316;53.840;10.762;2022-09-03T01:04:05;16.30;99.90
8557;DHT22;4316;53.840;10.762;2022-09-03T01:06:42;16.30;99.90
8557;DHT22;4316;53.840;10.762;2022-09-03T01:11:58;16.30;99.90
8557;DHT22;4316;53.840;10.762;2022-09-03T01:20:26;16.20;99.90
8557;DHT22;4316;53.840;10.762;2022-09-03T01:25:53;16.10;99.90
8557;DHT22;4316;53.840;10.762;2022-09-03T01:28:26;16.10;99.90
8557;DHT22;4316;53.840;10.762;2022-09-03T01:36:26;16.10;99.90
8557;DHT22;4316;53.840;10.762;2022-09-03T01:39:02;16.00;99.90
8557;DHT22;4316;53.840;10.762;2022-09-03T01:55:53;16.00;99.90
8557;DHT22;4316;53.840;10.762;2022-09-03T02:01:00;16.00;99.90
8557;DHT22;4316;53.840;10.762;2022-09-03T02:03:37;16.00;99.90
8557;DHT22;4316;53.840;10.762;2022-09-03T02:06:04;15.90;99.90
8557;DHT22;4316;53.840;10.762;2022-09-03T02:08:32;15.90;99.90
8557;DHT22;4316;53.840;10.762;2022-09-03T02:10:58;15.90;99.90
8557;DHT22;4316;53.840;10.762;2022-09-03T02:13:40;15.90;99.90
8557;DHT22;4316;53.840;10.762;2022-09-03T02:16:13;15.90;99.90
8557;DHT22;4316;53.840;10.762;2022-09-03T02:18:57;15.90;99.90
8557;DHT22;4316;53.840;10.762;2022-09-03T02:21:25;16.10;99.90
8557;DHT22;4316;53.840;10.762;2022-09-03T02:23:51;16.00;99.90
8557;DHT22;4316;53.840;10.762;2022-09-03T02:26:24;16.10;99.90
8557;DHT22;4316;53.840;10.762;2022-09-03T02:28:50;16.00;99.90
8557;DHT22;4316;53.840;10.762;2022-09-03T02:31:17;15.90;99.90
8557;DHT22;4316;53.840;10.762;2022-09-03T02:33:46;16.00;99.90
8557;DHT22;4316;53.840;10.762;2022-09-03T02:36:15;16.00;99.90
8557;DHT22;4316;53.840;10.762;2022-09-03T02:38:42;15.90;99.90
8557;DHT22;4316;53.840;10.762;2022-09-03T02:41:12;15.90;99.90
8557;DHT22;4316;53.840;10.762;2022-09-03T02:46:20;15.90;99.90
8557;DHT22;4316;53.840;10.762;2022-09-03T02:48:45;15.90;99.90
8557;DHT22;4316;53.840;10.762;2022-09-03T02:51:11;15.90;99.90
8557;DHT22;4316;53.840;10.762;2022-09-03T02:53:37;15.80;99.90
8557;DHT22;4316;53.840;10.762;2022-09-03T02:56:03;15.90;99.90
8557;DHT22;4316;53.840;10.762;2022-09-03T02:58:29;15.80;99.90
8557;DHT22;4316;53.840;10.762;2022-09-03T03:00:58;15.80;99.90
8557;DHT22;4316;53.840;10.762;2022-09-03T03:03:24;15.70;99.90
8557;DHT22;4316;53.840;10.762;2022-09-03T03:05:55;15.80;99.90
8557;DHT22;4316;53.840;10.762;2022-09-03T03:08:24;15.90;99.90
8557;DHT22;4316;53.840;10.762;2022-09-03T03:10:54;15.80;99.90
8557;DHT22;4316;53.840;10.762;2022-09-03T03:13:26;15.80;99.90
8557;DHT22;4316;53.840;10.762;2022-09-03T03:15:55;15.70;99.90
8557;DHT22;4316;53.840;10.762;2022-09-03T03:18:21;15.70;99.90
8557;DHT22;4316;53.840;10.762;2022-09-03T03:20:47;15.70;99.90
8557;DHT22;4316;53.840;10.762;2022-09-03T03:23:12;15.60;99.90
8557;DHT22;4316;53.840;10.762;2022-09-03T03:25:39;15.60;99.90
8557;DHT22;4316;53.840;10.762;2022-09-03T03:28:05;15.60;99.90
8557;DHT22;4316;53.840;10.762;2022-09-03T03:30:32;15.60;99.90
8557;DHT22;4316;53.840;10.762;2022-09-03T03:32:57;15.60;99.90
8557;DHT22;4316;53.840;10.762;2022-09-03T03:35:23;15.60;99.90
8557;DHT22;4316;53.840;10.762;2022-09-03T03:37:49;15.60;99.90
8557;DHT22;4316;53.840;10.762;2022-09-03T03:40:15;15.60;99.90
8557;DHT22;4316;53.840;10.762;2022-09-03T03:42:41;15.60;99.90
8557;DHT22;4316;53.840;10.762;2022-09-03T03:45:07;15.60;99.90
8557;DHT22;4316;53.840;10.762;2022-09-03T03:47:34;15.50;99.90
8557;DHT22;4316;53.840;10.762;2022-09-03T03:50:00;15.40;99.90
8557;DHT22;4316;53.840;10.762;2022-09-03T03:52:26;15.40;99.90
8557;DHT22;4316;53.840;10.762;2022-09-03T03:54:52;15.40;99.90
8557;DHT22;4316;53.840;10.762;2022-09-03T03:57:20;15.50;99.90
8557;DHT22;4316;53.840;10.762;2022-09-03T03:59:46;15.60;99.90
8557;DHT22;4316;53.840;10.762;2022-09-03T04:02:13;15.60;99.90
8557;DHT22;4316;53.840;10.762;2022-09-03T04:04:39;15.50;99.90
8557;DHT22;4316;53.840;10.762;2022-09-03T04:07:05;15.50;99.90
8557;DHT22;4316;53.840;10.762;2022-09-03T04:09:31;15.50;99.90
8557;DHT22;4316;53.840;10.762;2022-09-03T04:11:57;15.50;99.90
8557;DHT22;4316;53.840;10.762;2022-09-03T04:14:23;15.40;99.90
8557;DHT22;4316;53.840;10.762;2022-09-03T04:16:49;15.30;99.90
8557;DHT22;4316;53.840;10.762;2022-09-03T04:19:15;15.30;99.90
8557;DHT22;4316;53.840;10.762;2022-09-03T04:21:41;15.30;99.90
8557;DHT22;4316;53.840;10.762;2022-09-03T04:24:06;15.40;99.90
8557;DHT22;4316;53.840;10.762;2022-09-03T04:26:32;15.40;99.90
8557;DHT22;4316;53.840;10.762;2022-09-03T04:29:00;15.30;99.90
8557;DHT22;4316;53.840;10.762;2022-09-03T04:31:26;15.30;99.90
8557;DHT22;4316;53.840;10.762;2022-09-03T04:33:52;15.30;99.90
8557;DHT22;4316;53.840;10.762;2022-09-03T04:36:21;15.40;99.90
8557;DHT22;4316;53.840;10.762;2022-09-03T04:38:48;15.30;99.90
8557;DHT22;4316;53.840;10.762;2022-09-03T04:41:17;15.20;99.90
8557;DHT22;4316;53.840;10.762;2022-09-03T04:43:43;15.20;99.90
8557;DHT22;4316;53.840;10.762;2022-09-03T04:46:12;15.20;99.90
8557;DHT22;4316;53.840;10.762;2022-09-03T04:48:38;15.10;99.90
8557;DHT22;4316;53.840;10.762;2022-09-03T04:51:09;15.10;99.90
8557;DHT22;4316;53.840;10.762;2022-09-03T04:53:37;15.10;99.90
8557;DHT22;4316;53.840;10.762;2022-09-03T04:56:15;15.10;99.90
8557;DHT22;4316;53.840;10.762;2022-09-03T04:58:42;15.10;99.90
8557;DHT22;4316;53.840;10.762;2022-09-03T05:01:09;15.20;99.90
8557;DHT22;4316;53.840;10.762;2022-09-03T05:03:35;15.30;99.90
8557;DHT22;4316;53.840;10.762;2022-09-03T05:06:02;15.20;99.90
8557;DHT22;4316;53.840;10.762;2022-09-03T05:08:31;15.20;99.90
8557;DHT22;4316;53.840;10.762;2022-09-03T05:11:00;15.20;99.90
8557;DHT22;4316;53.840;10.762;2022-09-03T05:13:26;15.20;99.90
8557;DHT22;4316;53.840;10.762;2022-09-03T05:15:58;15.30;99.90
8557;DHT22;4316;53.840;10.762;2022-09-03T05:18:23;15.30;99.90
8557;DHT22;4316;53.840;10.762;2022-09-03T05:23:26;15.20;99.90
8557;DHT22;4316;53.840;10.762;2022-09-03T05:26:00;15.20;99.90
8557;DHT22;4316;53.840;10.762;2022-09-03T05:28:28;15.20;99.90
8557;DHT22;4316;53.840;10.762;2022-09-03T05:33:24;15.30;99.90
8557;DHT22;4316;53.840;10.762;2022-09-03T05:35:49;15.30;99.90
8557;DHT22;4316;53.840;10.762;2022-09-03T05:38:15;15.40;99.90
8557;DHT22;4316;53.840;10.762;2022-09-03T05:40:42;15.40;99.90
8557;DHT22;4316;53.840;10.762;2022-09-03T05:43:07;15.30;99.90
8557;DHT22;4316;53.840;10.762;2022-09-03T05:45:33;15.40;99.90
8557;DHT22;4316;53.840;10.762;2022-09-03T05:47:59;15.40;99.90
8557;DHT22;4316;53.840;10.762;2022-09-03T05:50:26;15.50;99.90
8557;DHT22;4316;53.840;10.762;2022-09-03T05:52:51;15.50;99.90
8557;DHT22;4316;53.840;10.762;2022-09-03T05:55:18;15.50;99.90
8557;DHT22;4316;53.840;10.762;2022-09-03T05:57:43;15.60;99.90
8557;DHT22;4316;53.840;10.762;2022-09-03T06:00:10;15.80;99.90
8557;DHT22;4316;53.840;10.762;2022-09-03T06:02:37;16.00;99.90
8557;DHT22;4316;53.840;10.762;2022-09-03T06:05:03;16.10;99.90
8557;DHT22;4316;53.840;10.762;2022-09-03T06:07:28;16.20;99.90
8557;DHT22;4316;53.840;10.762;2022-09-03T06:09:54;16.30;99.90
8557;DHT22;4316;53.840;10.762;2022-09-03T06:12:20;16.60;99.90
8557;DHT22;4316;53.840;10.762;2022-09-03T06:14:46;16.60;99.90
8557;DHT22;4316;53.840;10.762;2022-09-03T06:17:11;16.70;99.90
8557;DHT22;4316;53.840;10.762;2022-09-03T06:19:39;16.80;99.90
8557;DHT22;4316;53.840;10.762;2022-09-03T06:22:04;16.90;99.90
8557;DHT22;4316;53.840;10.762;2022-09-03T06:24:30;17.20;99.90
8557;DHT22;4316;53.840;10.762;2022-09-03T06:26:56;17.30;99.90
8557;DHT22;4316;53.840;10.762;2022-09-03T06:29:21;17.50;99.90
8557;DHT22;4316;53.840;10.762;2022-09-03T06:31:47;17.50;99.90
8557;DHT22;4316;53.840;10.762;2022-09-03T06:34:13;17.70;99.90
8557;DHT22;4316;53.840;10.762;2022-09-03T06:36:39;17.80;99.90
8557;DHT22;4316;53.840;10.762;2022-09-03T09:52:40;23.60;90.30
8557;DHT22;4316;53.840;10.762;2022-09-03T09:55:14;23.60;90.30
8557;DHT22;4316;53.840;10.762;2022-09-03T09:57:39;23.40;90.40
8557;DHT22;4316;53.840;10.762;2022-09-03T10:00:08;23.30;90.10
8557;DHT22;4316;53.840;10.762;2022-09-03T10:02:39;23.70;90.20
8557;DHT22;4316;53.840;10.762;2022-09-03T10:05:18;23.80;90.50
8557;DHT22;4316;53.840;10.762;2022-09-03T10:07:57;24.20;90.20
8557;DHT22;4316;53.840;10.762;2022-09-03T10:10:24;24.10;90.00
8557;DHT22;4316;53.840;10.762;2022-09-03T10:13:00;23.90;89.60
8557;DHT22;4316;53.840;10.762;2022-09-03T10:18:18;24.00;88.80
8557;DHT22;4316;53.840;10.762;2022-09-03T10:23:55;24.50;88.40
8557;DHT22;4316;53.840;10.762;2022-09-03T10:26:24;24.30;87.20
8557;DHT22;4316;53.840;10.762;2022-09-03T10:28:57;24.20;85.40
8557;DHT22;4316;53.840;10.762;2022-09-03T10:48:24;24.20;83.60
8557;DHT22;4316;53.840;10.762;2022-09-03T10:51:04;24.30;84.10
8557;DHT22;4316;53.840;10.762;2022-09-03T10:56:21;23.80;82.70
8557;DHT22;4316;53.840;10.762;2022-09-03T10:59:18;24.00;83.50
8557;DHT22;4316;53.840;10.762;2022-09-03T11:07:11;23.90;85.30
8557;DHT22;4316;53.840;10.762;2022-09-03T11:09:57;23.90;83.90
8557;DHT22;4316;53.840;10.762;2022-09-03T11:12:35;24.30;83.90
8557;DHT22;4316;53.840;10.762;2022-09-03T11:15:04;23.80;84.00
8557;DHT22;4316;53.840;10.762;2022-09-03T11:17:37;24.20;84.30
8557;DHT22;4316;53.840;10.762;2022-09-03T11:20:22;24.80;84.80
8557;DHT22;4316;53.840;10.762;2022-09-03T11:22:50;24.80;83.60
8557;DHT22;4316;53.840;10.762;2022-09-03T11:25:19;24.50;82.10
8557;DHT22;4316;53.840;10.762;2022-09-03T11:27:58;24.20;83.60
8557;DHT22;4316;53.840;10.762;2022-09-03T11:33:12;24.40;82.70
8557;DHT22;4316;53.840;10.762;2022-09-03T11:35:40;24.50;82.90
8557;DHT22;4316;53.840;10.762;2022-09-03T11:38:19;24.70;83.20
8557;DHT22;4316;53.840;10.762;2022-09-03T11:41:13;24.70;82.30
8557;DHT22;4316;53.840;10.762;2022-09-03T11:43:41;24.10;83.30
8557;DHT22;4316;53.840;10.762;2022-09-03T11:48:48;24.10;84.20
8557;DHT22;4316;53.840;10.762;2022-09-03T11:54:03;23.60;84.20
8557;DHT22;4316;53.840;10.762;2022-09-03T11:56:30;23.30;84.70
8557;DHT22;4316;53.840;10.762;2022-09-03T12:04:13;23.10;84.80
8557;DHT22;4316;53.840;10.762;2022-09-03T12:09:50;22.80;85.60
8557;DHT22;4316;53.840;10.762;2022-09-03T12:20:11;24.00;82.20
8557;DHT22;4316;53.840;10.762;2022-09-03T12:22:37;23.80;82.30
8557;DHT22;4316;53.840;10.762;2022-09-03T12:25:09;24.00;81.90
8557;DHT22;4316;53.840;10.762;2022-09-03T12:27:35;23.90;82.50
8557;DHT22;4316;53.840;10.762;2022-09-03T12:30:03;24.00;82.60
8557;DHT22;4316;53.840;10.762;2022-09-03T12:32:34;24.20;81.80
8557;DHT22;4316;53.840;10.762;2022-09-03T12:35:18;24.20;81.50
8557;DHT22;4316;53.840;10.762;2022-09-03T12:37:45;24.60;81.70
8557;DHT22;4316;53.840;10.762;2022-09-03T12:40:18;25.10;81.90
8557;DHT22;4316;53.840;10.762;2022-09-03T12:42:46;24.70;80.20
8557;DHT22;4316;53.840;10.762;2022-09-03T12:45:13;24.50;80.40
8557;DHT22;4316;53.840;10.762;2022-09-03T12:47:41;24.50;80.30
8557;DHT22;4316;53.840;10.762;2022-09-03T12:50:10;24.80;81.00
8557;DHT22;4316;53.840;10.762;2022-09-03T12:52:50;24.60;80.00
8557;DHT22;4316;53.840;10.762;2022-09-03T12:55:35;24.50;80.50
8557;DHT22;4316;53.840;10.762;2022-09-03T12:58:18;24.60;80.70
8557;DHT22;4316;53.840;10.762;2022-09-03T13:01:10;24.30;81.60
8557;DHT22;4316;53.840;10.762;2022-09-03T13:03:53;24.00;81.20
8557;DHT22;4316;53.840;10.762;2022-09-03T13:06:24;24.00;81.50
8557;DHT22;4316;53.840;10.762;2022-09-03T13:08:56;24.20;81.90
8557;DHT22;4316;53.840;10.762;2022-09-03T13:11:24;23.80;81.30
8557;DHT22;4316;53.840;10.762;2022-09-03T13:14:04;23.50;81.70
8557;DHT22;4316;53.840;10.762;2022-09-03T13:19:21;24.20;81.90
8557;DHT22;4316;53.840;10.762;2022-09-03T13:21:49;24.10;80.90
8557;DHT22;4316;53.840;10.762;2022-09-03T13:32:24;23.60;81.20
8557;DHT22;4316;53.840;10.762;2022-09-03T13:35:09;23.80;80.90
8557;DHT22;4316;53.840;10.762;2022-09-03T13:38:45;23.80;81.50
8557;DHT22;4316;53.840;10.762;2022-09-03T13:43:35;23.40;81.50
8557;DHT22;4316;53.840;10.762;2022-09-03T13:46:16;23.40;82.00
8557;DHT22;4316;53.840;10.762;2022-09-03T13:48:45;23.40;81.70
8557;DHT22;4316;53.840;10.762;2022-09-03T13:51:44;23.20;81.80
8557;DHT22;4316;53.840;10.762;2022-09-03T13:54:22;23.00;81.50
8557;DHT22;4316;53.840;10.762;2022-09-03T14:00:12;23.20;82.80
8557;DHT22;4316;53.840;10.762;2022-09-03T14:02:51;23.50;83.10
8557;DHT22;4316;53.840;10.762;2022-09-03T14:08:51;23.10;82.50
8557;DHT22;4316;53.840;10.762;2022-09-03T14:14:36;22.60;82.40
8557;DHT22;4316;53.840;10.762;2022-09-03T14:17:12;22.80;82.70
8557;DHT22;4316;53.840;10.762;2022-09-03T14:20:03;22.70;82.90
8557;DHT22;4316;53.840;10.762;2022-09-03T14:25:17;23.20;82.10
8557;DHT22;4316;53.840;10.762;2022-09-03T14:27:43;23.20;82.20
8557;DHT22;4316;53.840;10.762;2022-09-03T14:33:07;23.10;80.90
8557;DHT22;4316;53.840;10.762;2022-09-03T14:38:36;23.10;82.40
8557;DHT22;4316;53.840;10.762;2022-09-03T14:41:31;23.30;82.50
8557;DHT22;4316;53.840;10.762;2022-09-03T14:52:28;23.40;82.10
8557;DHT22;4316;53.840;10.762;2022-09-03T14:58:15;22.90;83.10
8557;DHT22;4316;53.840;10.762;2022-09-03T15:01:04;23.00;83.00
8557;DHT22;4316;53.840;10.762;2022-09-03T15:03:54;22.70;83.00
8557;DHT22;4316;53.840;10.762;2022-09-03T15:06:44;22.60;83.60
8557;DHT22;4316;53.840;10.762;2022-09-03T15:12:07;22.90;83.50
8557;DHT22;4316;53.840;10.762;2022-09-03T15:14:40;23.10;83.50
8557;DHT22;4316;53.840;10.762;2022-09-03T15:17:40;23.10;82.90
8557;DHT22;4316;53.840;10.762;2022-09-03T15:26:15;22.30;83.30
8557;DHT22;4316;53.840;10.762;2022-09-03T15:34:33;22.20;84.00
8557;DHT22;4316;53.840;10.762;2022-09-03T15:37:01;22.20;85.20
8557;DHT22;4316;53.840;10.762;2022-09-03T15:39:37;22.20;85.80
8557;DHT22;4316;53.840;10.762;2022-09-03T15:42:07;22.20;86.20
8557;DHT22;4316;53.840;10.762;2022-09-03T15:44:55;22.10;85.70
8557;DHT22;4316;53.840;10.762;2022-09-03T15:47:33;21.90;85.80
8557;DHT22;4316;53.840;10.762;2022-09-03T15:50:08;22.00;86.00
8557;DHT22;4316;53.840;10.762;2022-09-03T15:53:13;22.10;85.70
8557;DHT22;4316;53.840;10.762;2022-09-03T15:55:42;22.10;86.60
8557;DHT22;4316;53.840;10.762;2022-09-03T16:06:58;22.10;86.70
8557;DHT22;4316;53.840;10.762;2022-09-03T16:09:29;22.10;86.70
8557;DHT22;4316;53.840;10.762;2022-09-03T16:12:18;22.00;86.80
8557;DHT22;4316;53.840;10.762;2022-09-03T16:14:45;21.90;87.00
8557;DHT22;4316;53.840;10.762;2022-09-03T16:17:26;21.80;86.70
8557;DHT22;4316;53.840;10.762;2022-09-03T16:20:07;21.70;87.00
8557;DHT22;4316;53.840;10.762;2022-09-03T16:28:08;21.60;87.60
8557;DHT22;4316;53.840;10.762;2022-09-03T16:36:36;21.50;87.20
8557;DHT22;4316;53.840;10.762;2022-09-03T16:39:30;21.70;87.30
8557;DHT22;4316;53.840;10.762;2022-09-03T16:45:09;21.70;87.60
8557;DHT22;4316;53.840;10.762;2022-09-03T16:59:30;21.40;87.60
8557;DHT22;4316;53.840;10.762;2022-09-03T17:02:34;21.40;88.00
8557;DHT22;4316;53.840;10.762;2022-09-03T17:05:26;21.30;87.70
8557;DHT22;4316;53.840;10.762;2022-09-03T17:11:05;21.20;87.20
8557;DHT22;4316;53.840;10.762;2022-09-03T17:19:28;21.00;87.80
8557;DHT22;4316;53.840;10.762;2022-09-03T17:22:01;21.00;87.80
8557;DHT22;4316;53.840;10.762;2022-09-03T17:24:43;21.00;88.00
8557;DHT22;4316;53.840;10.762;2022-09-03T17:35:10;20.90;87.90
8557;DHT22;4316;53.840;10.762;2022-09-03T17:41:45;20.70;88.20
8557;DHT22;4316;53.840;10.762;2022-09-03T17:44:11;20.90;88.50
8557;DHT22;4316;53.840;10.762;2022-09-03T17:47:22;21.00;88.00
8557;DHT22;4316;53.840;10.762;2022-09-03T17:50:04;21.00;88.20
8557;DHT22;4316;53.840;10.762;2022-09-03T17:52:38;21.10;87.90
8557;DHT22;4316;53.840;10.762;2022-09-03T17:55:28;21.10;88.10
8557;DHT22;4316;53.840;10.762;2022-09-03T17:58:18;21.00;88.10
8557;DHT22;4316;53.840;10.762;2022-09-03T18:08:56;21.00;88.50
8557;DHT22;4316;53.840;10.762;2022-09-03T18:11:33;20.80;88.40
8557;DHT22;4316;53.840;10.762;2022-09-03T18:14:10;20.80;88.70
8557;DHT22;4316;53.840;10.762;2022-09-03T18:17:03;20.80;89.00
8557;DHT22;4316;53.840;10.762;2022-09-03T18:19:37;21.00;88.80
8557;DHT22;4316;53.840;10.762;2022-09-03T18:22:29;21.10;89.00
8557;DHT22;4316;53.840;10.762;2022-09-03T18:25:16;21.20;88.60
8557;DHT22;4316;53.840;10.762;2022-09-03T18:28:06;21.30;88.90
8557;DHT22;4316;53.840;10.762;2022-09-03T18:30:52;21.30;89.20
8557;DHT22;4316;53.840;10.762;2022-09-03T18:33:37;21.30;88.70
8557;DHT22;4316;53.840;10.762;2022-09-03T18:36:22;21.20;88.90
8557;DHT22;4316;53.840;10.762;2022-09-03T18:39:14;21.30;89.30
8557;DHT22;4316;53.840;10.762;2022-09-03T18:42:13;21.20;89.10
8557;DHT22;4316;53.840;10.762;2022-09-03T18:45:21;21.20;89.40
8557;DHT22;4316;53.840;10.762;2022-09-03T18:48:21;21.20;89.70
8557;DHT22;4316;53.840;10.762;2022-09-03T18:51:21;21.10;90.10
8557;DHT22;4316;53.840;10.762;2022-09-03T18:57:20;21.10;90.00
8557;DHT22;4316;53.840;10.762;2022-09-03T19:00:10;20.90;89.90
8557;DHT22;4316;53.840;10.762;2022-09-03T19:06:05;20.50;90.60
8557;DHT22;4316;53.840;10.762;2022-09-03T19:20:37;19.60;92.60
8557;DHT22;4316;53.840;10.762;2022-09-03T19:23:24;19.60;92.70
8557;DHT22;4316;53.840;10.762;2022-09-03T19:29:22;19.50;93.20
8557;DHT22;4316;53.840;10.762;2022-09-03T19:32:16;19.50;93.30
8557;DHT22;4316;53.840;10.762;2022-09-03T19:35:21;19.50;93.70
8557;DHT22;4316;53.840;10.762;2022-09-03T19:38:37;19.30;94.20
8557;DHT22;4316;53.840;10.762;2022-09-03T19:41:31;19.00;94.80
8557;DHT22;4316;53.840;10.762;2022-09-03T19:44:47;18.90;95.20
8557;DHT22;4316;53.840;10.762;2022-09-03T19:50:40;18.80;95.70
8557;DHT22;4316;53.840;10.762;2022-09-03T19:53:26;18.90;95.80
8557;DHT22;4316;53.840;10.762;2022-09-03T19:56:18;18.90;95.90
8557;DHT22;4316;53.840;10.762;2022-09-03T19:59:17;18.90;96.00
8557;DHT22;4316;53.840;10.762;2022-09-03T20:02:02;18.90;96.10
8557;DHT22;4316;53.840;10.762;2022-09-03T20:04:57;18.80;96.50
8557;DHT22;4316;53.840;10.762;2022-09-03T20:07:44;18.60;96.90
8557;DHT22;4316;53.840;10.762;2022-09-03T20:10:29;18.50;97.40
8557;DHT22;4316;53.840;10.762;2022-09-03T20:13:12;18.30;98.00
8557;DHT22;4316;53.840;10.762;2022-09-03T20:15:52;18.20;98.20
8557;DHT22;4316;53.840;10.762;2022-09-03T20:21:23;18.00;98.80
8557;DHT22;4316;53.840;10.762;2022-09-03T20:24:11;18.00;99.00
8557;DHT22;4316;53.840;10.762;2022-09-03T20:27:09;18.00;99.10
8557;DHT22;4316;53.840;10.762;2022-09-03T20:30:07;18.00;99.20
8557;DHT22;4316;53.840;10.762;2022-09-03T20:36:23;18.00;99.50
8557;DHT22;4316;53.840;10.762;2022-09-03T20:38:56;18.00;99.70
8557;DHT22;4316;53.840;10.762;2022-09-03T20:41:54;17.90;99.90
8557;DHT22;4316;53.840;10.762;2022-09-03T20:44:49;17.90;99.90
8557;DHT22;4316;53.840;10.762;2022-09-03T20:47:56;17.90;99.90
8557;DHT22;4316;53.840;10.762;2022-09-03T20:56:02;17.60;99.90
8557;DHT22;4316;53.840;10.762;2022-09-03T21:01:07;17.70;99.90
8557;DHT22;4316;53.840;10.762;2022-09-03T21:03:35;17.70;99.90
8557;DHT22;4316;53.840;10.762;2022-09-03T21:14:40;17.70;99.90
8557;DHT22;4316;53.840;10.762;2022-09-03T21:20:24;17.70;99.90
8557;DHT22;4316;53.840;10.762;2022-09-03T21:22:59;17.60;99.90
8557;DHT22;4316;53.840;10.762;2022-09-03T21:25:38;17.70;99.90
8557;DHT22;4316;53.840;10.762;2022-09-03T21:28:29;17.70;99.90
8557;DHT22;4316;53.840;10.762;2022-09-03T21:31:00;17.70;99.90
8557;DHT22;4316;53.840;10.762;2022-09-03T21:33:37;17.70;99.90
8557;DHT22;4316;53.840;10.762;2022-09-03T21:36:19;17.60;99.90
8557;DHT22;4316;53.840;10.762;2022-09-03T21:39:05;17.50;99.90
8557;DHT22;4316;53.840;10.762;2022-09-03T21:41:37;17.40;99.90
8557;DHT22;4316;53.840;10.762;2022-09-03T21:44:39;17.40;99.90
8557;DHT22;4316;53.840;10.762;2022-09-03T21:47:09;17.30;99.90
8557;DHT22;4316;53.840;10.762;2022-09-03T21:50:21;17.30;99.90
8557;DHT22;4316;53.840;10.762;2022-09-03T22:01:17;17.20;99.90
8557;DHT22;4316;53.840;10.762;2022-09-03T22:03:44;17.20;99.90
8557;DHT22;4316;53.840;10.762;2022-09-03T22:06:15;17.30;99.90
8557;DHT22;4316;53.840;10.762;2022-09-03T22:09:03;17.20;99.90
8557;DHT22;4316;53.840;10.762;2022-09-03T22:11:48;17.10;99.90
8557;DHT22;4316;53.840;10.762;2022-09-03T22:14:17;17.20;99.90
8557;DHT22;4316;53.840;10.762;2022-09-03T22:19:17;17.20;99.90
8557;DHT22;4316;53.840;10.762;2022-09-03T22:21:56;17.00;99.90
8557;DHT22;4316;53.840;10.762;2022-09-03T22:25:02;16.90;99.90
8557;DHT22;4316;53.840;10.762;2022-09-03T22:30:16;16.80;99.90
8557;DHT22;4316;53.840;10.762;2022-09-03T22:36:05;16.80;99.90
8557;DHT22;4316;53.840;10.762;2022-09-03T22:41:22;16.90;99.90
8557;DHT22;4316;53.840;10.762;2022-09-03T22:52:35;16.80;99.90
8557;DHT22;4316;53.840;10.762;2022-09-03T22:57:48;16.90;99.90
8557;DHT22;4316;53.840;10.762;2022-09-03T23:00:16;16.80;99.90
8557;DHT22;4316;53.840;10.762;2022-09-03T23:02:46;16.80;99.90
8557;DHT22;4316;53.840;10.762;2022-09-03T23:05:30;16.80;99.90
8557;DHT22;4316;53.840;10.762;2022-09-03T23:10:50;16.80;99.90
8557;DHT22;4316;53.840;10.762;2022-09-03T23:18:35;16.80;99.90
8557;DHT22;4316;53.840;10.762;2022-09-03T23:21:23;16.80;99.90
8557;DHT22;4316;53.840;10.762;2022-09-03T23:24:09;16.80;99.90
8557;DHT22;4316;53.840;10.762;2022-09-03T23:26:43;16.70;99.90
8557;DHT22;4316;53.840;10.762;2022-09-03T23:31:44;16.80;99.90
8557;DHT22;4316;53.840;10.762;2022-09-03T23:34:11;16.80;99.90
8557;DHT22;4316;53.840;10.762;2022-09-03T23:36:39;16.80;99.90
8557;DHT22;4316;53.840;10.762;2022-09-03T23:39:23;16.80;99.90
8557;DHT22;4316;53.840;10.762;2022-09-03T23:47:40;16.90;99.90
8557;DHT22;4316;53.840;10.762;2022-09-03T23:53:07;16.80;99.90
8557;DHT22;4316;53.840;10.762;2022-09-03T23:58:36;16.80;99.90
